NCAR-RAP Real-Time Weather Data

Output produced by METARs form (21 May 2019  10:27 UTC)
found at http://weather.rap.ucar.edu/surface/
 
RJNT 211000Z 29006KT 260V320 9999 FEW100 BKN/// 18/08 Q1005
RJNT 210900Z 28007KT 9999 FEW080 BKN/// 20/08 Q1004
RJNT 210800Z 29006KT 250V320 9999 FEW040 BKN/// 21/06 Q1004
RJNT 210700Z 29006KT 240V330 9999 FEW040 BKN/// 23/06 Q1003
RJNT 210600Z 29007KT 260V340 9999 FEW040 BKN/// 22/06 Q1004
RJNT 210500Z 29006G17KT 230V350 9999 FEW040 BKN/// 22/07 Q1004
RJNT 210400Z VRB04KT 9999 FEW030 SCT060 BKN070 22/12 Q1004
RJNT 210300Z VRB02KT 9999 FEW010 BKN060 20/11 Q1004
RJNT 210200Z 31004KT 250V030 9999 FEW008 BKN060 20/11 Q1005
RJNT 210100Z 23004KT 9999 FEW005 SCT010 BKN060 17/14 Q1005
RJNT 210000Z 24003KT 200V270 9999 VCSH FEW002 SCT008 BKN060 16/14 Q1005
RJNT 202313Z 22005KT 8000 -SHRA FEW002 SCT006 BKN010 16/15 Q1006 RMK 1ST002 3CU006 5CU010 A2971
RJNT 202300Z 25004KT 8000 SHRA BR FEW002 SCT006 BKN008 16/15 Q1006
RJNT 202249Z 25005KT 5000 SHRA BR FEW002 SCT006 BKN008 16/15 Q1005 RMK 1ST002 3CU006 5CU008 A2970
RJNT 202222Z 28003KT 220V310 4000 SHRA BR FEW002 SCT006 BKN012 16/15 Q1005 RMK 1ST002 3CU006 5CU012 A2969
RJNT 202218Z 28003KT 6000 -SHRA BR FEW002 SCT006 BKN012 16/15 Q1005 RMK 1ST002 3CU006 5CU012 A2969 BR NE-SE
RJNT 202200Z 27004KT 4000 SHRA BR FEW002 SCT006 BKN012 16/15 Q1004
RJNT 202147Z 26004KT 4000 SHRA BR FEW002 SCT006 BKN010 16/15 Q1004 RMK 1ST002 3CU006 5CU010 A2967
RJNT 202110Z 25008KT 5000 SHRA BR FEW002 SCT006 BKN010 16/15 Q1004 RMK 1ST002 3CU006 5CU010 A2965
RJNT 201200Z 18009G19KT 130V220 9999 -SHRA FEW030 SCT090 BKN110 23/11 Q1004
RJNT 201100Z 16008G18KT 090V230 9999 -SHRA FEW030 SCT090 BKN110 23/12 Q1003
RJNT 201000Z 17011G25KT 100V220 9999 -SHRA FEW030 SCT090 BKN110 24/11 Q1004
RJNT 200900Z 15009G25KT 060V200 9999 FEW030 SCT090 BKN180 25/12 Q1003
RJNT 200800Z 18011KT 140V210 9999 VCSH FEW030 SCT090 BKN150 26/11 Q1004
RJNT 200700Z 18010KT 130V220 9999 VCSH FEW030 SCT070 BKN120 27/12 Q1004
RJNT 200600Z 17014G24KT 120V200 9999 FEW040 SCT150 BKN180 28/11 Q1004
RJNT 200501Z 20016G27KT 160V230 9999 FEW040 SCT180 BKN/// 30/11 Q1004 RMK 1CU040 4AC180 A2967
RJNT 200500Z 20016KT 160V230 9999 FEW040 SCT180 BKN/// 30/10 Q1004
RJNT 200400Z 18014G24KT 140V210 9999 FEW040 SCT180 BKN/// 30/10 Q1005
RJNT 200300Z 19016G26KT 160V240 9999 FEW040 SCT180 BKN/// 29/11 Q1006
RJNT 200200Z 19021G34KT 9999 FEW040 BKN180 28/10 Q1007
RJNT 200100Z 18016G32KT 140V210 9999 FEW040 BKN180 27/10 Q1008
RJNT 200000Z 19016G26KT 9999 FEW040 BKN180 25/10 Q1008
RJNT 192300Z 19018G33KT 150V210 9999 FEW040 SCT/// 25/09 Q1009
RJNT 192200Z 18013G23KT 140V220 9999 FEW040 23/09 Q1009
RJNT 192110Z 18012G22KT 120V220 9999 FEW040 22/08 Q1010 RMK 1CU040 A2984
RJNT 191200Z 16006KT 110V210 9999 FEW030 SCT/// 23/11 Q1015
RJNT 191100Z VRB02KT 9999 FEW030 SCT/// 22/13 Q1015
RJNT 191000Z 36004KT 9999 FEW030 SCT/// 23/13 Q1015
RJNT 190900Z 36003KT 9999 FEW030 BKN/// 24/12 Q1015
RJNT 190800Z 01004KT 9999 FEW030 SCT080 BKN/// 24/11 Q1015
RJNT 190700Z 33008KT 290V010 9999 FEW030 SCT080 BKN/// 24/12 Q1015
RJNT 190600Z 35010KT 9999 FEW030 BKN/// 25/12 Q1014
RJNT 190500Z 36013KT 9999 FEW030 SCT/// 26/12 Q1014
RJNT 190400Z 02013KT 9999 FEW030 SCT/// 27/10 Q1015
RJNT 190300Z 36014KT 340V050 9999 FEW030 26/13 Q1016
RJNT 190223Z 35010KT 9999 FEW040 29/09 Q1016 RMK 1CU040 A3002
RJNT 190200Z 15005KT 090V220 9999 FEW040 29/07 Q1016
RJNT 190100Z 16007KT 070V220 9999 FEW040 27/10 Q1017
RJNT 190000Z VRB07KT 9999 FEW040 25/09 Q1017
RJNT 182300Z VRB05KT CAVOK 23/10 Q1018